1866 Hurricane NOT_NAMED (1866242N14307)


IBTrACS version v04r00. Visit IBTrACS website for data access.
Please direct all questions to the IBTrACS Q and A forum

Storm track - Intensity - Wind Radii - Intensity Data - Source Data - All data

Summary Information

Storm ID 1866242N14307
Start Aug 29 12Z
Max Intensity 70 kt (Sep 4 18Z)
End Sep 11 12Z
ATCF IDs
Track status Best track data.

Storm track plot

Map of storm track

Intensity plots

Map of storm track

Radial wind information

No radial wind information for this storm


Position and Intensity Table

BASIN ISO_TIME_________ NATURE LAT LON MLC WIND
degrees north degrees east kts
NA 1866-08-29 12:00:00 TS 14.40 -53.50 30
NA 15:00:00 TS 14.75 -54.00 30
NA 18:00:00 TS 15.10 -54.50 30
NA 21:00:00 TS 15.45 -55.00 30
NA 1866-08-30 00:00:00 TS 15.80 -55.50 30
NA 03:00:00 TS 16.15 -56.00 30
NA 06:00:00 TS 16.50 -56.50 30
NA 09:00:00 TS 16.85 -57.00 32
NA 12:00:00 TS 17.20 -57.50 35
NA 15:00:00 TS 17.55 -58.00 35
NA 18:00:00 TS 17.90 -58.50 35
NA 21:00:00 TS 18.25 -59.00 35
NA 1866-08-31 00:00:00 TS 18.60 -59.50 35
NA 03:00:00 TS 18.95 -60.00 35
NA 06:00:00 TS 19.30 -60.50 35
NA 09:00:00 TS 19.65 -61.00 37
NA 12:00:00 TS 20.00 -61.50 40
NA 15:00:00 TS 20.35 -62.00 40
NA 18:00:00 TS 20.70 -62.50 40
NA 21:00:00 TS 21.05 -63.00 40
NA 1866-09-01 00:00:00 TS 21.40 -63.50 40
NA 03:00:00 TS 21.76 -64.00 42
NA 06:00:00 TS 22.10 -64.50 45
NA 09:00:00 TS 22.37 -65.02 45
NA 12:00:00 TS 22.70 -65.50 45
NA 15:00:00 TS 23.22 -65.87 45
NA 18:00:00 TS 23.80 -66.20 45
NA 21:00:00 TS 24.31 -66.55 47
NA 1866-09-02 00:00:00 TS 24.80 -66.90 50
NA 03:00:00 TS 25.30 -67.25 50
NA 06:00:00 TS 25.80 -67.60 50
NA 09:00:00 TS 26.29 -67.99 52
NA 12:00:00 TS 26.80 -68.30 55
NA 15:00:00 TS 27.39 -68.45 55
NA 18:00:00 TS 28.00 -68.50 55
NA 21:00:00 TS 28.56 -68.54 57
NA 1866-09-03 00:00:00 TS 29.10 -68.60 60
NA 03:00:00 TS 29.65 -68.76 60
NA 06:00:00 TS 30.20 -68.90 60
NA 09:00:00 TS 30.70 -68.97 60
NA 12:00:00 TS 31.30 -68.80 60
NA 15:00:00 TS 32.16 -68.23 62
NA 18:00:00 TS 33.10 -67.50 65
NA 21:00:00 TS 34.03 -66.90 65
NA 1866-09-04 00:00:00 TS 34.80 -66.30 65
NA 03:00:00 TS 35.22 -65.65 65
NA 06:00:00 TS 35.50 -65.00 65
NA 09:00:00 TS 35.88 -64.42 65
NA 12:00:00 TS 36.30 -63.80 65
NA 15:00:00 TS 36.73 -63.04 67
NA 18:00:00 TS 37.20 -62.20 70
NA 21:00:00 TS 37.70 -61.31 70
NA 1866-09-05 00:00:00 TS 38.20 -60.40 70
NA 03:00:00 TS 38.66 -59.54 70
NA 06:00:00 TS 39.10 -58.70 70
NA 09:00:00 TS 39.58 -57.89 70
NA 12:00:00 TS 40.00 -57.00 70
NA 15:00:00 TS 40.28 -55.93 70
NA 18:00:00 TS 40.50 -54.80 70
NA 21:00:00 TS 40.75 -53.74 70
NA 1866-09-06 00:00:00 TS 41.00 -52.70 70
NA 03:00:00 TS 41.25 -51.65 70
NA 06:00:00 TS 41.50 -50.60 70
NA 09:00:00 TS 41.79 -49.54 67
NA 12:00:00 TS 42.00 -48.50 65
NA 15:00:00 TS 42.04 -47.49 65
NA 18:00:00 TS 42.00 -46.50 65
NA 21:00:00 TS 42.00 -45.50 65
NA 1866-09-07 00:00:00 TS 42.00 -44.50 65
NA 03:00:00 TS 42.00 -43.50 65
NA 06:00:00 TS 42.00 -42.50 65
NA 09:00:00 TS 41.98 -41.51 65
NA 12:00:00 TS 42.00 -40.50 65
NA 15:00:00 TS 42.09 -39.46 65
NA 18:00:00 TS 42.20 -38.40 65
NA 21:00:00 TS 42.26 -37.39 65
NA 1866-09-08 00:00:00 TS 42.30 -36.30 65
NA 03:00:00 TS 42.35 -35.04 65
NA 06:00:00 TS 42.40 -33.70 65
NA 09:00:00 TS 42.42 -32.20 65
NA 12:00:00 TS 42.50 -31.00 65
NA 15:00:00 TS 42.72 -30.55 65
NA 18:00:00 TS 43.00 -30.40 65
NA 21:00:00 TS 43.25 -30.05 65
NA 1866-09-09 00:00:00 TS 43.50 -29.70 65
NA 03:00:00 TS 43.75 -29.39 65
NA 06:00:00 TS 44.00 -29.10 65
NA 09:00:00 TS 44.22 -28.80 62
NA 12:00:00 ET 44.50 -28.50 60
NA 15:00:00 ET 44.92 -28.19 60
NA 18:00:00 ET 45.40 -27.90 60
NA 21:00:00 ET 45.85 -27.65 60
NA 1866-09-10 00:00:00 ET 46.30 -27.40 60
NA 03:00:00 ET 46.76 -27.10 60
NA 06:00:00 ET 47.20 -26.80 60
NA 09:00:00 ET 47.58 -26.55 60
NA 12:00:00 ET 48.00 -26.30 60
NA 15:00:00 ET 48.58 -26.00 60
NA 18:00:00 ET 49.20 -25.70 60
NA 21:00:00 ET 49.76 -25.45 60
NA 1866-09-11 00:00:00 ET 50.30 -25.20 60
NA 03:00:00 ET 50.85 -24.91 60
NA 06:00:00 ET 51.40 -24.60 60
NA 09:00:00 ET 51.95 -24.30 60
NA 12:00:00 ET 52.50 -24.00 60

Source Information

Agency Information
USA
TOKYO
CMA
HKO
NEWDELHI
REUNION
BOM
NADI
WELLINGTON
DS824
TD9636
TD9635
NEUMANN
MLC

All available IBTrACS Data

SEASON BASIN SUBBASIN ISO_TIME_________ NATURE LAT LON DIST2LAND LANDFALL IFLAG USA SSHS MLC LAT MLC LON MLC CLASS MLC WIND STORM SPEED STORM DIR
Year degrees north degrees east km km 1 degrees north degrees east kts kts degrees
1866 NA NA 1866-08-29 12:00:00 TS 14.40 -53.50 913 881 _____________O -1 14.40 -53.50 TD 30 12 306
1866 NA NA 15:00:00 TS 14.75 -54.00 887 859 _____________P -1 14.75 -54.00 TD 30 12 306
1866 NA NA 18:00:00 TS 15.10 -54.50 859 836 _____________O -1 15.10 -54.50 TD 30 12 306
1866 NA NA 21:00:00 TS 15.45 -55.00 836 824 _____________P -1 15.45 -55.00 TD 30 12 306
1866 NA NA 1866-08-30 00:00:00 TS 15.80 -55.50 824 811 _____________O -1 15.80 -55.50 TD 30 12 306
1866 NA NA 03:00:00 TS 16.15 -56.00 811 807 _____________P -1 16.15 -56.00 TD 30 12 306
1866 NA NA 06:00:00 TS 16.50 -56.50 811 804 _____________O -1 16.50 -56.50 TD 30 12 306
1866 NA NA 09:00:00 TS 16.85 -57.00 808 808 _____________P -1 16.85 -57.00 TD 32 12 306
1866 NA NA 12:00:00 TS 17.20 -57.50 819 808 _____________O -1 17.20 -57.50 TS 35 12 306
1866 NA NA 15:00:00 TS 17.55 -58.00 808 751 _____________P -1 17.55 -58.00 TS 35 12 306
1866 NA NA 18:00:00 TS 17.90 -58.50 751 697 _____________O -1 17.90 -58.50 TS 35 12 306
1866 NA NA 21:00:00 TS 18.25 -59.00 697 643 _____________P -1 18.25 -59.00 TS 35 12 306
1866 NA NA 1866-08-31 00:00:00 TS 18.60 -59.50 643 592 _____________O -1 18.60 -59.50 TS 35 12 306
1866 NA NA 03:00:00 TS 18.95 -60.00 592 546 _____________P -1 18.95 -60.00 TS 35 12 307
1866 NA NA 06:00:00 TS 19.30 -60.50 546 501 _____________O -1 19.30 -60.50 TS 35 12 307
1866 NA NA 09:00:00 TS 19.65 -61.00 501 466 _____________P -1 19.65 -61.00 TS 37 12 307
1866 NA NA 12:00:00 TS 20.00 -61.50 466 433 _____________O -1 20.00 -61.50 TS 40 12 307
1866 NA NA 15:00:00 TS 20.35 -62.00 433 414 _____________P -1 20.35 -62.00 TS 40 12 307
1866 NA NA 18:00:00 TS 20.70 -62.50 414 398 _____________O -1 20.70 -62.50 TS 40 12 307
1866 NA NA 21:00:00 TS 21.05 -63.00 398 394 _____________P -1 21.05 -63.00 TS 40 12 307
1866 NA NA 1866-09-01 00:00:00 TS 21.40 -63.50 400 395 _____________O -1 21.40 -63.50 TS 40 12 307
1866 NA NA 03:00:00 TS 21.76 -64.00 415 411 _____________P -1 21.76 -64.00 TS 42 12 307
1866 NA NA 06:00:00 TS 22.10 -64.50 429 426 _____________O -1 22.10 -64.50 TS 45 11 303
1866 NA NA 09:00:00 TS 22.37 -65.02 451 449 _____________P -1 22.37 -65.02 TS 45 11 303
1866 NA NA 12:00:00 TS 22.70 -65.50 481 481 _____________O -1 22.70 -65.50 TS 45 12 317
1866 NA NA 15:00:00 TS 23.22 -65.87 536 536 _____________P -1 23.22 -65.87 TS 45 13 330
1866 NA NA 18:00:00 TS 23.80 -66.20 596 596 _____________O -1 23.80 -66.20 TS 45 13 330
1866 NA NA 21:00:00 TS 24.31 -66.55 624 624 _____________P -1 24.31 -66.55 TS 47 12 327
1866 NA NA 1866-09-02 00:00:00 TS 24.80 -66.90 662 662 _____________O -1 24.80 -66.90 TS 50 12 327
1866 NA NA 03:00:00 TS 25.30 -67.25 694 694 _____________P -1 25.30 -67.25 TS 50 12 328
1866 NA NA 06:00:00 TS 25.80 -67.60 735 735 _____________O -1 25.80 -67.60 TS 50 12 326
1866 NA NA 09:00:00 TS 26.29 -67.99 763 763 _____________P -1 26.29 -67.99 TS 52 12 328
1866 NA NA 12:00:00 TS 26.80 -68.30 786 786 _____________O -1 26.80 -68.30 TS 55 12 340
1866 NA NA 15:00:00 TS 27.39 -68.45 834 829 _____________P -1 27.39 -68.45 TS 55 12 352
1866 NA NA 18:00:00 TS 28.00 -68.50 885 885 _____________O -1 28.00 -68.50 TS 55 12 356
1866 NA NA 21:00:00 TS 28.56 -68.54 942 942 _____________P -1 28.56 -68.54 TS 57 11 355
1866 NA NA 1866-09-03 00:00:00 TS 29.10 -68.60 970 918 _____________O -1 29.10 -68.60 TS 60 11 350
1866 NA NA 03:00:00 TS 29.65 -68.76 911 867 _____________P -1 29.65 -68.76 TS 60 11 347
1866 NA NA 06:00:00 TS 30.20 -68.90 867 826 _____________O -1 30.20 -68.90 TS 60 11 350
1866 NA NA 09:00:00 TS 30.70 -68.97 826 796 _____________P -1 30.70 -68.97 TS 60 11 5
1866 NA NA 12:00:00 TS 31.30 -68.80 796 778 _____________O -1 31.30 -68.80 TS 60 16 23
1866 NA NA 15:00:00 TS 32.16 -68.23 782 776 _____________P -1 32.16 -68.23 TS 62 21 31
1866 NA NA 18:00:00 TS 33.10 -67.50 791 786 _____________O -1 33.10 -67.50 HU 65 22 31
1866 NA NA 21:00:00 TS 34.03 -66.90 807 804 _____________P -1 34.03 -66.90 HU 65 20 30
1866 NA NA 1866-09-04 00:00:00 TS 34.80 -66.30 832 810 _____________O -1 34.80 -66.30 HU 65 16 41
1866 NA NA 03:00:00 TS 35.22 -65.65 818 808 _____________P -1 35.22 -65.65 HU 65 13 57
1866 NA NA 06:00:00 TS 35.50 -65.00 814 801 _____________O -1 35.50 -65.00 HU 65 12 56
1866 NA NA 09:00:00 TS 35.88 -64.42 806 798 _____________P -1 35.88 -64.42 HU 65 13 51
1866 NA NA 12:00:00 TS 36.30 -63.80 803 777 _____________O -1 36.30 -63.80 HU 65 14 53
1866 NA NA 15:00:00 TS 36.73 -63.04 781 748 _____________P -1 36.73 -63.04 HU 67 16 55
1866 NA NA 18:00:00 TS 37.20 -62.20 748 723 _____________O -1 37.20 -62.20 HU 70 17 55
1866 NA NA 21:00:00 TS 37.70 -61.31 727 714 _____________P -1 37.70 -61.31 HU 70 17 55
1866 NA NA 1866-09-05 00:00:00 TS 38.20 -60.40 718 713 _____________O -1 38.20 -60.40 HU 70 17 55
1866 NA NA 03:00:00 TS 38.66 -59.54 718 706 _____________P -1 38.66 -59.54 HU 70 16 56
1866 NA NA 06:00:00 TS 39.10 -58.70 706 675 _____________O -1 39.10 -58.70 HU 70 16 54
1866 NA NA 09:00:00 TS 39.58 -57.89 675 662 _____________P -1 39.58 -57.89 HU 70 16 56
1866 NA NA 12:00:00 TS 40.00 -57.00 667 666 _____________O -1 40.00 -57.00 HU 70 17 65
1866 NA NA 15:00:00 TS 40.28 -55.93 689 686 _____________P -1 40.28 -55.93 HU 70 17 73
1866 NA NA 18:00:00 TS 40.50 -54.80 684 656 _____________O -1 40.50 -54.80 HU 70 17 74
1866 NA NA 21:00:00 TS 40.75 -53.74 655 623 _____________P -1 40.75 -53.74 HU 70 17 73
1866 NA NA 1866-09-06 00:00:00 TS 41.00 -52.70 623 606 _____________O -1 41.00 -52.70 HU 70 17 72
1866 NA NA 03:00:00 TS 41.25 -51.65 613 598 _____________P -1 41.25 -51.65 HU 70 17 72
1866 NA NA 06:00:00 TS 41.50 -50.60 603 598 _____________O -1 41.50 -50.60 HU 70 17 71
1866 NA NA 09:00:00 TS 41.79 -49.54 608 607 _____________P -1 41.79 -49.54 HU 67 16 72
1866 NA NA 12:00:00 TS 42.00 -48.50 632 632 _____________O -1 42.00 -48.50 HU 65 15 81
1866 NA NA 15:00:00 TS 42.04 -47.49 682 682 _____________P -1 42.04 -47.49 HU 65 15 90
1866 NA NA 18:00:00 TS 42.00 -46.50 736 736 _____________O -1 42.00 -46.50 HU 65 15 91
1866 NA NA 21:00:00 TS 42.00 -45.50 795 795 _____________P -1 42.00 -45.50 HU 65 15 90
1866 NA NA 1866-09-07 00:00:00 TS 42.00 -44.50 857 857 _____________O -1 42.00 -44.50 HU 65 15 90
1866 NA NA 03:00:00 TS 42.00 -43.50 920 920 _____________P -1 42.00 -43.50 HU 65 15 90
1866 NA NA 06:00:00 TS 42.00 -42.50 986 986 _____________O -1 42.00 -42.50 HU 65 15 91
1866 NA NA 09:00:00 TS 41.98 -41.51 1053 1053 _____________P -1 41.98 -41.51 HU 65 15 90
1866 NA NA 12:00:00 TS 42.00 -40.50 1122 1122 _____________O -1 42.00 -40.50 HU 65 15 86
1866 NA NA 15:00:00 TS 42.09 -39.46 1186 1186 _____________P -1 42.09 -39.46 HU 65 16 83
1866 NA NA 18:00:00 TS 42.20 -38.40 1258 1258 _____________O -1 42.20 -38.40 HU 65 15 84
1866 NA NA 21:00:00 TS 42.26 -37.39 1322 1322 _____________P -1 42.26 -37.39 HU 65 16 86
1866 NA NA 1866-09-08 00:00:00 TS 42.30 -36.30 1399 1399 _____________O -1 42.30 -36.30 HU 65 17 87
1866 NA NA 03:00:00 TS 42.35 -35.04 1492 1487 _____________P -1 42.35 -35.04 HU 65 19 87
1866 NA NA 06:00:00 TS 42.40 -33.70 1581 1581 _____________O -1 42.40 -33.70 HU 65 21 88
1866 NA NA 09:00:00 TS 42.42 -32.20 1690 1690 _____________P -1 42.42 -32.20 HU 65 20 87
1866 NA NA 12:00:00 TS 42.50 -31.00 1761 1725 _____________O -1 42.50 -31.00 HU 65 12 76
1866 NA NA 15:00:00 TS 42.72 -30.55 1717 1705 _____________P -1 42.72 -30.55 HU 65 7 41
1866 NA NA 18:00:00 TS 43.00 -30.40 1705 1678 _____________O -1 43.00 -30.40 HU 65 6 34
1866 NA NA 21:00:00 TS 43.25 -30.05 1669 1643 _____________P -1 43.25 -30.05 HU 65 7 46
1866 NA NA 1866-09-09 00:00:00 TS 43.50 -29.70 1643 1617 _____________O -1 43.50 -29.70 HU 65 7 44
1866 NA NA 03:00:00 TS 43.75 -29.39 1617 1591 _____________P -1 43.75 -29.39 HU 65 7 41
1866 NA NA 06:00:00 TS 44.00 -29.10 1591 1566 _____________O -1 44.00 -29.10 HU 65 6 42
1866 NA NA 09:00:00 TS 44.22 -28.80 1566 1541 _____________P -1 44.22 -28.80 HU 62 7 41
1866 NA NA 12:00:00 ET 44.50 -28.50 1541 1511 _____________O -1 44.50 -28.50 EX 60 8 32
1866 NA NA 15:00:00 ET 44.92 -28.19 1511 1459 _____________P -1 44.92 -28.19 EX 60 10 25
1866 NA NA 18:00:00 ET 45.40 -27.90 1459 1421 _____________O -1 45.40 -27.90 EX 60 10 22
1866 NA NA 21:00:00 ET 45.85 -27.65 1415 1371 _____________P -1 45.85 -27.65 EX 60 10 21
1866 NA NA 1866-09-10 00:00:00 ET 46.30 -27.40 1371 1328 _____________O -1 46.30 -27.40 EX 60 10 23
1866 NA NA 03:00:00 ET 46.76 -27.10 1322 1280 _____________P -1 46.76 -27.10 EX 60 10 25
1866 NA NA 06:00:00 ET 47.20 -26.80 1280 1246 _____________O -1 47.20 -26.80 EX 60 9 25
1866 NA NA 09:00:00 ET 47.58 -26.55 1239 1206 _____________P -1 47.58 -26.55 EX 60 9 23
1866 NA NA 12:00:00 ET 48.00 -26.30 1206 1162 _____________O -1 48.00 -26.30 EX 60 11 20
1866 NA NA 15:00:00 ET 48.58 -26.00 1157 1111 _____________P -1 48.58 -26.00 EX 60 13 18
1866 NA NA 18:00:00 ET 49.20 -25.70 1111 1077 _____________O -1 49.20 -25.70 EX 60 12 17
1866 NA NA 21:00:00 ET 49.76 -25.45 1067 1036 _____________P -1 49.76 -25.45 EX 60 11 16
1866 NA NA 1866-09-11 00:00:00 ET 50.30 -25.20 1036 1001 _____________O -1 50.30 -25.20 EX 60 11 18
1866 NA NA 03:00:00 ET 50.85 -24.91 1001 967 _____________P -1 50.85 -24.91 EX 60 12 19
1866 NA NA 06:00:00 ET 51.40 -24.60 967 938 _____________O -1 51.40 -24.60 EX 60 12 19
1866 NA NA 09:00:00 ET 51.95 -24.30 937 912 _____________P -1 51.95 -24.30 EX 60 12 19
1866 NA NA 12:00:00 ET 52.50 -24.00 912 _____________O -1 52.50 -24.00 EX 60 12 18